Terminal Aerodrome Forecast
Issued by NWS

Home | Current Version | Previous Version | Text Only | Print | Product List | Glossary On
Versions: 1 2 3 4 5 6 7 8 9 10 11 12 13 14 15 16 17 18 19 20 21 22
000
FTPA31 PHFO 252300
TAFMDY
TAF
PMDY 252329Z 2600/2624 20011KT P6SM FEW025 BKN045
     FM260600 25008KT P6SM VCSH SCT015 BKN035 BKN045
     FM260900 32005KT 6SM -SHRA SCT015 BKN025 BKN045
     FM261600 36008KT P6SM FEW025 BKN045
     FM262000 36012KT P6SM FEW025 SCT050
      AMD LTD TO CLD AND WIND=

USA.gov is the U.S. government's official web portal to all federal, state and local government web resources and services.